IGO5927 VIDP-VEHO
Flight info
| Callsign | IGO5927 |
|---|---|
| Flight time | 2h 9m |
| Altitude | 39000 |
| Route | ALI G452 LKN Z13 RUKNI Q18 GGT W51 KALAM |
| Aircraft | A20N/M-SDE2E3FGHIRWXY/LB1 |
Departure
| Time | 2026-05-07 07:08 |
|---|---|
| Airport | Indira Gandhi International Airport (VIDP) |
Arrival
| Time | 2026-05-07 09:17 |
|---|---|
| Airport | Itanagar Donyi Polo Hollongi Airport (VEHO) |
| Time | Latitude | Longitude | Altitude | Speed | Heading |
|---|---|---|---|---|---|
| 2026-05-07 05:56 | 28.55081 | 77.08954 | 751 ft | 0 kts | 240° |
| 2026-05-07 06:00 | 28.55081 | 77.08955 | 751 ft | 0 kts | 240° |
| 2026-05-07 06:19 | 28.55081 | 77.08956 | 751 ft | 0 kts | 240° |
| 2026-05-07 06:23 | 28.55082 | 77.08956 | 751 ft | 0 kts | 240° |
| 2026-05-07 06:41 | 28.55082 | 77.08957 | 751 ft | 0 kts | 240° |
| 2026-05-07 06:53 | 28.55084 | 77.08961 | 751 ft | 3 kts | 239° |
| 2026-05-07 06:53 | 28.55100 | 77.08985 | 747 ft | 4 kts | 215° |
| 2026-05-07 06:53 | 28.55119 | 77.08993 | 751 ft | 4 kts | 149° |
| 2026-05-07 06:54 | 28.55125 | 77.08989 | 751 ft | 3 kts | 128° |
| 2026-05-07 06:55 | 28.55125 | 77.08988 | 751 ft | 0 kts | 128° |
| 2026-05-07 07:00 | 28.55125 | 77.08989 | 751 ft | 1 kts | 128° |
| 2026-05-07 07:01 | 28.55117 | 77.09001 | 748 ft | 3 kts | 128° |
| 2026-05-07 07:01 | 28.55095 | 77.09027 | 751 ft | 6 kts | 142° |
| 2026-05-07 07:01 | 28.55051 | 77.09059 | 747 ft | 9 kts | 149° |
| 2026-05-07 07:01 | 28.54991 | 77.09101 | 750 ft | 11 kts | 148° |
| 2026-05-07 07:02 | 28.54920 | 77.09150 | 749 ft | 13 kts | 149° |
| 2026-05-07 07:02 | 28.54833 | 77.09186 | 751 ft | 14 kts | 200° |
| 2026-05-07 07:02 | 28.54825 | 77.09081 | 751 ft | 16 kts | 286° |
| 2026-05-07 07:02 | 28.54856 | 77.08955 | 747 ft | 18 kts | 285° |
| 2026-05-07 07:03 | 28.54891 | 77.08811 | 749 ft | 20 kts | 285° |
| 2026-05-07 07:03 | 28.54924 | 77.08650 | 747 ft | 22 kts | 284° |
| 2026-05-07 07:03 | 28.54963 | 77.08485 | 748 ft | 20 kts | 285° |
| 2026-05-07 07:03 | 28.55001 | 77.08320 | 748 ft | 23 kts | 286° |
| 2026-05-07 07:04 | 28.55041 | 77.08145 | 747 ft | 23 kts | 284° |
| 2026-05-07 07:04 | 28.55069 | 77.08026 | 749 ft | 24 kts | 285° |
| 2026-05-07 07:04 | 28.55110 | 77.07844 | 751 ft | 20 kts | 284° |
| 2026-05-07 07:04 | 28.55153 | 77.07659 | 751 ft | 6 kts | 284° |
| 2026-05-07 07:05 | 28.55142 | 77.07622 | 748 ft | 6 kts | 213° |
| 2026-05-07 07:05 | 28.55101 | 77.07608 | 752 ft | 6 kts | 192° |
| 2026-05-07 07:05 | 28.55072 | 77.07601 | 752 ft | 7 kts | 192° |
| 2026-05-07 07:05 | 28.54995 | 77.07581 | 752 ft | 10 kts | 195° |
| 2026-05-07 07:06 | 28.54923 | 77.07559 | 750 ft | 12 kts | 194° |
| 2026-05-07 07:06 | 28.54867 | 77.07565 | 749 ft | 13 kts | 146° |
| 2026-05-07 07:06 | 28.54835 | 77.07648 | 752 ft | 0 kts | 103° |
| 2026-05-07 07:06 | 28.54835 | 77.07652 | 752 ft | 2 kts | 103° |
| 2026-05-07 07:07 | 28.54791 | 77.07853 | 751 ft | 58 kts | 104° |
| 2026-05-07 07:07 | 28.54650 | 77.08509 | 748 ft | 109 kts | 103° |
| 2026-05-07 07:07 | 28.54440 | 77.09480 | 750 ft | 145 kts | 105° |
| 2026-05-07 07:07 | 28.54179 | 77.10659 | 1035 ft | 154 kts | 100° |
| 2026-05-07 07:08 | 28.53975 | 77.11859 | 1440 ft | 157 kts | 104° |
| 2026-05-07 07:08 | 28.53691 | 77.13065 | 1798 ft | 160 kts | 110° |
| 2026-05-07 07:08 | 28.52966 | 77.14054 | 2048 ft | 180 kts | 154° |
| 2026-05-07 07:08 | 28.51637 | 77.14249 | 2238 ft | 206 kts | 175° |
| 2026-05-07 07:09 | 28.50133 | 77.14281 | 2448 ft | 228 kts | 175° |
| 2026-05-07 07:09 | 28.48461 | 77.14326 | 2748 ft | 253 kts | 177° |
| 2026-05-07 07:09 | 28.46658 | 77.14382 | 3389 ft | 264 kts | 177° |
| 2026-05-07 07:09 | 28.44805 | 77.14452 | 4248 ft | 268 kts | 177° |
| 2026-05-07 07:10 | 28.42924 | 77.14535 | 5133 ft | 272 kts | 177° |
| 2026-05-07 07:10 | 28.41024 | 77.14628 | 6024 ft | 275 kts | 177° |
| 2026-05-07 07:10 | 28.39093 | 77.14730 | 6670 ft | 280 kts | 177° |
| 2026-05-07 07:10 | 28.37145 | 77.14828 | 6855 ft | 280 kts | 177° |
| 2026-05-07 07:11 | 28.35197 | 77.14925 | 6891 ft | 280 kts | 178° |
| 2026-05-07 07:11 | 28.33250 | 77.15022 | 6894 ft | 280 kts | 177° |
| 2026-05-07 07:11 | 28.31305 | 77.15123 | 6895 ft | 280 kts | 176° |
| 2026-05-07 07:11 | 28.29406 | 77.15575 | 6893 ft | 280 kts | 159° |
| 2026-05-07 07:12 | 28.27697 | 77.16651 | 7119 ft | 286 kts | 141° |
| 2026-05-07 07:12 | 28.26242 | 77.18188 | 8022 ft | 286 kts | 137° |
| 2026-05-07 07:12 | 28.24791 | 77.19754 | 8836 ft | 289 kts | 137° |
| 2026-05-07 07:12 | 28.23333 | 77.21313 | 9557 ft | 295 kts | 138° |
| 2026-05-07 07:13 | 28.21827 | 77.22916 | 9828 ft | 298 kts | 138° |
| 2026-05-07 07:13 | 28.20276 | 77.24567 | 9899 ft | 319 kts | 138° |
| 2026-05-07 07:13 | 28.18617 | 77.26337 | 9898 ft | 332 kts | 138° |
| 2026-05-07 07:13 | 28.16927 | 77.28147 | 9897 ft | 336 kts | 138° |
| 2026-05-07 07:14 | 28.15231 | 77.29972 | 9898 ft | 336 kts | 137° |
| 2026-05-07 07:14 | 28.13535 | 77.31797 | 9897 ft | 336 kts | 137° |
| 2026-05-07 07:14 | 28.11836 | 77.33621 | 9892 ft | 337 kts | 138° |
| 2026-05-07 07:14 | 28.10133 | 77.35445 | 9884 ft | 337 kts | 138° |
| 2026-05-07 07:15 | 28.08467 | 77.37313 | 9899 ft | 338 kts | 132° |
| 2026-05-07 07:15 | 28.06940 | 77.39373 | 10461 ft | 342 kts | 131° |
| 2026-05-07 07:15 | 28.05398 | 77.41439 | 11194 ft | 346 kts | 131° |
| 2026-05-07 07:15 | 28.03827 | 77.43532 | 11871 ft | 352 kts | 132° |
| 2026-05-07 07:16 | 28.02225 | 77.45658 | 12542 ft | 358 kts | 132° |
| 2026-05-07 07:16 | 28.00592 | 77.47819 | 13211 ft | 364 kts | 132° |
| 2026-05-07 07:16 | 27.98934 | 77.50011 | 13895 ft | 369 kts | 132° |
| 2026-05-07 07:16 | 27.97257 | 77.52233 | 14549 ft | 374 kts | 131° |
| 2026-05-07 07:17 | 27.95559 | 77.54488 | 15173 ft | 378 kts | 131° |
| 2026-05-07 07:17 | 27.93844 | 77.56768 | 15776 ft | 383 kts | 131° |
| 2026-05-07 07:17 | 27.92106 | 77.59077 | 16377 ft | 388 kts | 132° |
| 2026-05-07 07:17 | 27.90346 | 77.61412 | 16969 ft | 392 kts | 132° |
| 2026-05-07 07:18 | 27.88568 | 77.63769 | 17579 ft | 396 kts | 132° |
| 2026-05-07 07:18 | 27.86766 | 77.66150 | 18162 ft | 401 kts | 132° |
| 2026-05-07 07:18 | 27.85100 | 77.68649 | 18726 ft | 406 kts | 122° |
| 2026-05-07 07:18 | 27.83847 | 77.71518 | 19338 ft | 409 kts | 110° |
| 2026-05-07 07:19 | 27.83094 | 77.74622 | 19940 ft | 411 kts | 98° |
| 2026-05-07 07:19 | 27.82868 | 77.77834 | 20536 ft | 411 kts | 88° |
| 2026-05-07 07:19 | 27.82879 | 77.81078 | 21110 ft | 414 kts | 88° |
| 2026-05-07 07:19 | 27.82889 | 77.84335 | 21650 ft | 416 kts | 88° |
| 2026-05-07 07:20 | 27.82898 | 77.87620 | 22166 ft | 419 kts | 88° |
| 2026-05-07 07:20 | 27.82906 | 77.90921 | 22689 ft | 421 kts | 88° |
| 2026-05-07 07:20 | 27.82908 | 77.94235 | 23216 ft | 423 kts | 88° |
| 2026-05-07 07:20 | 27.82907 | 77.97564 | 23727 ft | 425 kts | 89° |
| 2026-05-07 07:21 | 27.82905 | 78.00913 | 24211 ft | 427 kts | 89° |
| 2026-05-07 07:21 | 27.82905 | 78.04283 | 24671 ft | 430 kts | 88° |
| 2026-05-07 07:21 | 27.82907 | 78.07676 | 25082 ft | 434 kts | 88° |
| 2026-05-07 07:21 | 27.82910 | 78.11098 | 25470 ft | 438 kts | 88° |
| 2026-05-07 07:22 | 27.82887 | 78.14557 | 25853 ft | 442 kts | 91° |
| 2026-05-07 07:22 | 27.82492 | 78.18019 | 26226 ft | 448 kts | 101° |
| 2026-05-07 07:22 | 27.81610 | 78.21409 | 26601 ft | 452 kts | 111° |
| 2026-05-07 07:22 | 27.80381 | 78.24697 | 26954 ft | 456 kts | 113° |
| 2026-05-07 07:23 | 27.79125 | 78.28008 | 27313 ft | 460 kts | 113° |
| 2026-05-07 07:23 | 27.77862 | 78.31343 | 27657 ft | 464 kts | 113° |
| 2026-05-07 07:23 | 27.76592 | 78.34708 | 28005 ft | 467 kts | 113° |
| 2026-05-07 07:23 | 27.75318 | 78.38096 | 28346 ft | 471 kts | 113° |
| 2026-05-07 07:24 | 27.74052 | 78.41468 | 28670 ft | 474 kts | 113° |
| 2026-05-07 07:24 | 27.72742 | 78.44952 | 28999 ft | 478 kts | 113° |
| 2026-05-07 07:24 | 27.71437 | 78.48418 | 29337 ft | 482 kts | 113° |
| 2026-05-07 07:24 | 27.70119 | 78.51904 | 29677 ft | 485 kts | 113° |
| 2026-05-07 07:25 | 27.67464 | 78.58927 | 30353 ft | 491 kts | 113° |
| 2026-05-07 07:25 | 27.66119 | 78.62480 | 30693 ft | 494 kts | 113° |
| 2026-05-07 07:25 | 27.64764 | 78.66060 | 31023 ft | 497 kts | 113° |
| 2026-05-07 07:26 | 27.63404 | 78.69651 | 31348 ft | 500 kts | 114° |
| 2026-05-07 07:26 | 27.62035 | 78.73262 | 31720 ft | 501 kts | 114° |
| 2026-05-07 07:26 | 27.60667 | 78.76864 | 32201 ft | 499 kts | 114° |
| 2026-05-07 07:26 | 27.59300 | 78.80462 | 32653 ft | 499 kts | 114° |
| 2026-05-07 07:27 | 27.57937 | 78.84053 | 33061 ft | 499 kts | 114° |
| 2026-05-07 07:27 | 27.56569 | 78.87654 | 33480 ft | 499 kts | 114° |
| 2026-05-07 07:27 | 27.55204 | 78.91244 | 33889 ft | 498 kts | 114° |
| 2026-05-07 07:27 | 27.53838 | 78.94832 | 34247 ft | 498 kts | 114° |
| 2026-05-07 07:28 | 27.52467 | 78.98418 | 34599 ft | 499 kts | 114° |
| 2026-05-07 07:28 | 27.51091 | 79.02012 | 34914 ft | 499 kts | 115° |
| 2026-05-07 07:28 | 27.49715 | 79.05610 | 35225 ft | 500 kts | 115° |
| 2026-05-07 07:28 | 27.48358 | 79.09159 | 35535 ft | 500 kts | 115° |
| 2026-05-07 07:29 | 27.46982 | 79.12762 | 35818 ft | 501 kts | 115° |
| 2026-05-07 07:29 | 27.45605 | 79.16368 | 36102 ft | 501 kts | 115° |
| 2026-05-07 07:29 | 27.44222 | 79.19978 | 36364 ft | 502 kts | 115° |
| 2026-05-07 07:29 | 27.42831 | 79.23598 | 36606 ft | 503 kts | 115° |
| 2026-05-07 07:30 | 27.41439 | 79.27212 | 36841 ft | 504 kts | 116° |
| 2026-05-07 07:30 | 27.40046 | 79.30820 | 37148 ft | 502 kts | 115° |
| 2026-05-07 07:30 | 27.38654 | 79.34427 | 37499 ft | 501 kts | 116° |
| 2026-05-07 07:30 | 27.37271 | 79.38013 | 37831 ft | 499 kts | 116° |
| 2026-05-07 07:31 | 27.35889 | 79.41607 | 38103 ft | 499 kts | 116° |
| 2026-05-07 07:31 | 27.34503 | 79.45197 | 38322 ft | 500 kts | 116° |
| 2026-05-07 07:31 | 27.33115 | 79.48786 | 38530 ft | 501 kts | 116° |
| 2026-05-07 07:31 | 27.31711 | 79.52375 | 38748 ft | 502 kts | 117° |
| 2026-05-07 07:32 | 27.30283 | 79.55957 | 38894 ft | 503 kts | 117° |
| 2026-05-07 07:32 | 27.27377 | 79.63129 | 38929 ft | 505 kts | 117° |
| 2026-05-07 07:33 | 27.24473 | 79.70280 | 38923 ft | 507 kts | 117° |
| 2026-05-07 07:33 | 27.21564 | 79.77503 | 38924 ft | 507 kts | 117° |
| 2026-05-07 07:34 | 27.18666 | 79.84708 | 38932 ft | 506 kts | 117° |
| 2026-05-07 07:34 | 27.15763 | 79.91922 | 38946 ft | 507 kts | 117° |
| 2026-05-07 07:35 | 27.12844 | 79.99135 | 38954 ft | 507 kts | 117° |
| 2026-05-07 07:35 | 27.09915 | 80.06341 | 38954 ft | 507 kts | 118° |
| 2026-05-07 07:36 | 27.06988 | 80.13541 | 38955 ft | 507 kts | 117° |
| 2026-05-07 07:36 | 27.04084 | 80.20692 | 38956 ft | 506 kts | 118° |
| 2026-05-07 07:37 | 27.01154 | 80.27880 | 38955 ft | 506 kts | 118° |
| 2026-05-07 07:37 | 26.98225 | 80.35067 | 38951 ft | 506 kts | 118° |
| 2026-05-07 07:38 | 26.95293 | 80.42240 | 38948 ft | 506 kts | 118° |
| 2026-05-07 07:38 | 26.92351 | 80.49415 | 38947 ft | 506 kts | 118° |
| 2026-05-07 07:39 | 26.89410 | 80.56574 | 38941 ft | 506 kts | 118° |
| 2026-05-07 07:39 | 26.86463 | 80.63733 | 38942 ft | 505 kts | 118° |
| 2026-05-07 07:40 | 26.83513 | 80.70900 | 38946 ft | 506 kts | 118° |
| 2026-05-07 07:40 | 26.80563 | 80.78051 | 38946 ft | 505 kts | 118° |
| 2026-05-07 07:41 | 26.77619 | 80.85190 | 38946 ft | 505 kts | 118° |
| 2026-05-07 07:41 | 26.75357 | 80.92646 | 38945 ft | 510 kts | 102° |
| 2026-05-07 07:42 | 26.74138 | 81.00469 | 38942 ft | 511 kts | 102° |
| 2026-05-07 07:42 | 26.72895 | 81.08286 | 38942 ft | 510 kts | 102° |
| 2026-05-07 07:43 | 26.71659 | 81.16053 | 38946 ft | 510 kts | 102° |
| 2026-05-07 07:43 | 26.70417 | 81.23863 | 38944 ft | 510 kts | 102° |
| 2026-05-07 07:44 | 26.69167 | 81.31679 | 38944 ft | 510 kts | 102° |
| 2026-05-07 07:44 | 26.67924 | 81.39488 | 38943 ft | 510 kts | 102° |
| 2026-05-07 07:45 | 26.66672 | 81.47298 | 38941 ft | 510 kts | 102° |
| 2026-05-07 07:45 | 26.65410 | 81.55104 | 38950 ft | 510 kts | 102° |
| 2026-05-07 07:46 | 26.64144 | 81.62906 | 38956 ft | 510 kts | 102° |
| 2026-05-07 07:46 | 26.62888 | 81.70699 | 38961 ft | 509 kts | 102° |
| 2026-05-07 07:47 | 26.61630 | 81.78431 | 38958 ft | 509 kts | 102° |
| 2026-05-07 07:47 | 26.60349 | 81.86216 | 38959 ft | 509 kts | 103° |
| 2026-05-07 07:48 | 26.59070 | 81.94000 | 38960 ft | 509 kts | 103° |
| 2026-05-07 07:48 | 26.57796 | 82.01777 | 38957 ft | 509 kts | 103° |
| 2026-05-07 07:49 | 26.56509 | 82.09574 | 38958 ft | 509 kts | 103° |
| 2026-05-07 07:49 | 26.55433 | 82.16033 | 38958 ft | 509 kts | 103° |
| 2026-05-07 07:50 | 26.54142 | 82.23807 | 38960 ft | 509 kts | 103° |
| 2026-05-07 07:50 | 26.52853 | 82.31582 | 38960 ft | 509 kts | 103° |
| 2026-05-07 07:51 | 26.51552 | 82.39358 | 38962 ft | 509 kts | 103° |
| 2026-05-07 07:51 | 26.50239 | 82.47120 | 38961 ft | 508 kts | 103° |
| 2026-05-07 07:52 | 26.48930 | 82.54883 | 38964 ft | 509 kts | 103° |
| 2026-05-07 07:52 | 26.47620 | 82.62651 | 38962 ft | 508 kts | 103° |
| 2026-05-07 07:53 | 26.46300 | 82.70398 | 38959 ft | 508 kts | 103° |
| 2026-05-07 07:53 | 26.44993 | 82.78105 | 38961 ft | 509 kts | 103° |
| 2026-05-07 07:54 | 26.43668 | 82.85869 | 38957 ft | 509 kts | 104° |
| 2026-05-07 07:54 | 26.42334 | 82.93617 | 38959 ft | 509 kts | 104° |
| 2026-05-07 07:55 | 26.40991 | 83.01380 | 38959 ft | 509 kts | 104° |
| 2026-05-07 07:55 | 26.39651 | 83.09140 | 38961 ft | 510 kts | 104° |
| 2026-05-07 07:56 | 26.38312 | 83.16907 | 38960 ft | 509 kts | 104° |
| 2026-05-07 07:56 | 26.36976 | 83.24668 | 38959 ft | 510 kts | 104° |
| 2026-05-07 07:57 | 26.35628 | 83.32434 | 38961 ft | 510 kts | 104° |
| 2026-05-07 07:57 | 26.34283 | 83.40193 | 38957 ft | 510 kts | 104° |
| 2026-05-07 07:58 | 26.32923 | 83.47950 | 38953 ft | 510 kts | 105° |
| 2026-05-07 07:58 | 26.31561 | 83.55657 | 38949 ft | 510 kts | 105° |
| 2026-05-07 07:59 | 26.30188 | 83.63419 | 38944 ft | 510 kts | 105° |
| 2026-05-07 07:59 | 26.28812 | 83.71183 | 38944 ft | 511 kts | 105° |
| 2026-05-07 08:00 | 26.27438 | 83.78953 | 38945 ft | 511 kts | 105° |
| 2026-05-07 08:00 | 26.26054 | 83.86729 | 38947 ft | 512 kts | 105° |
| 2026-05-07 08:01 | 26.24703 | 83.94534 | 38950 ft | 513 kts | 104° |
| 2026-05-07 08:01 | 26.23425 | 84.02351 | 38949 ft | 513 kts | 104° |
| 2026-05-07 08:02 | 26.22157 | 84.10174 | 38952 ft | 513 kts | 104° |
| 2026-05-07 08:02 | 26.20889 | 84.17947 | 38954 ft | 514 kts | 104° |
| 2026-05-07 08:03 | 26.19593 | 84.25771 | 38955 ft | 513 kts | 104° |
| 2026-05-07 08:03 | 26.18280 | 84.33582 | 38955 ft | 513 kts | 104° |
| 2026-05-07 08:04 | 26.16968 | 84.41392 | 38954 ft | 514 kts | 104° |
| 2026-05-07 08:04 | 26.15662 | 84.49205 | 38954 ft | 513 kts | 104° |
| 2026-05-07 08:05 | 26.14354 | 84.57005 | 38958 ft | 513 kts | 104° |
| 2026-05-07 08:05 | 26.13044 | 84.64806 | 38956 ft | 512 kts | 104° |
| 2026-05-07 08:06 | 26.11728 | 84.72598 | 38948 ft | 511 kts | 105° |
| 2026-05-07 08:06 | 26.10403 | 84.80375 | 38944 ft | 512 kts | 105° |
| 2026-05-07 08:07 | 26.09073 | 84.88152 | 38945 ft | 512 kts | 105° |
| 2026-05-07 08:07 | 26.07746 | 84.95933 | 38940 ft | 512 kts | 105° |
| 2026-05-07 08:08 | 26.06409 | 85.03720 | 38937 ft | 513 kts | 105° |
| 2026-05-07 08:08 | 26.05096 | 85.11468 | 38933 ft | 513 kts | 104° |
| 2026-05-07 08:09 | 26.03829 | 85.19280 | 38938 ft | 513 kts | 104° |
| 2026-05-07 08:09 | 26.02567 | 85.27079 | 38938 ft | 513 kts | 105° |
| 2026-05-07 08:10 | 26.01285 | 85.34882 | 38937 ft | 513 kts | 105° |
| 2026-05-07 08:10 | 26.00002 | 85.42694 | 38931 ft | 513 kts | 105° |
| 2026-05-07 08:11 | 25.98709 | 85.50485 | 38928 ft | 513 kts | 105° |
| 2026-05-07 08:11 | 25.97409 | 85.58278 | 38929 ft | 513 kts | 105° |
| 2026-05-07 08:12 | 25.96107 | 85.66075 | 38930 ft | 513 kts | 105° |
| 2026-05-07 08:12 | 25.94811 | 85.73877 | 38936 ft | 514 kts | 105° |
| 2026-05-07 08:13 | 25.93520 | 85.81690 | 38939 ft | 514 kts | 105° |
| 2026-05-07 08:13 | 25.92207 | 85.89490 | 38941 ft | 514 kts | 105° |
| 2026-05-07 08:14 | 25.90891 | 85.97249 | 38947 ft | 514 kts | 105° |
| 2026-05-07 08:14 | 25.89574 | 86.05056 | 38950 ft | 514 kts | 105° |
| 2026-05-07 08:15 | 25.88239 | 86.12871 | 38953 ft | 514 kts | 106° |
| 2026-05-07 08:15 | 25.86875 | 86.20672 | 38956 ft | 514 kts | 106° |
| 2026-05-07 08:16 | 25.85522 | 86.28477 | 38955 ft | 514 kts | 105° |
| 2026-05-07 08:16 | 25.84193 | 86.36272 | 38954 ft | 514 kts | 103° |
| 2026-05-07 08:17 | 25.84036 | 86.44251 | 38955 ft | 522 kts | 84° |
| 2026-05-07 08:17 | 25.85406 | 86.52174 | 38950 ft | 523 kts | 80° |
| 2026-05-07 08:18 | 25.86817 | 86.60044 | 38949 ft | 523 kts | 80° |
| 2026-05-07 08:18 | 25.88229 | 86.67963 | 38953 ft | 523 kts | 80° |
| 2026-05-07 08:19 | 25.89638 | 86.75888 | 38957 ft | 522 kts | 80° |
| 2026-05-07 08:19 | 25.91037 | 86.83794 | 38962 ft | 522 kts | 81° |
| 2026-05-07 08:20 | 25.92441 | 86.91699 | 38958 ft | 521 kts | 81° |
| 2026-05-07 08:20 | 25.93835 | 86.99597 | 38956 ft | 521 kts | 81° |
| 2026-05-07 08:21 | 25.95222 | 87.07497 | 38956 ft | 521 kts | 81° |
| 2026-05-07 08:21 | 25.96597 | 87.15340 | 38959 ft | 520 kts | 81° |
| 2026-05-07 08:22 | 25.97977 | 87.23234 | 38954 ft | 520 kts | 81° |
| 2026-05-07 08:22 | 25.99355 | 87.31121 | 38953 ft | 520 kts | 81° |
| 2026-05-07 08:23 | 26.00723 | 87.39003 | 38948 ft | 519 kts | 82° |
| 2026-05-07 08:23 | 26.02079 | 87.46884 | 38948 ft | 519 kts | 82° |
| 2026-05-07 08:24 | 26.03436 | 87.54777 | 38948 ft | 519 kts | 82° |
| 2026-05-07 08:24 | 26.04786 | 87.62662 | 38940 ft | 519 kts | 82° |
| 2026-05-07 08:25 | 26.06129 | 87.70545 | 38937 ft | 519 kts | 82° |
| 2026-05-07 08:25 | 26.07468 | 87.78428 | 38936 ft | 519 kts | 82° |
| 2026-05-07 08:26 | 26.10377 | 87.89995 | 38935 ft | 522 kts | 62° |
| 2026-05-07 08:26 | 26.12306 | 87.93405 | 38927 ft | 520 kts | 51° |
| 2026-05-07 08:26 | 26.14705 | 87.96394 | 38917 ft | 516 kts | 39° |
| 2026-05-07 08:27 | 26.20507 | 88.00934 | 38912 ft | 508 kts | 25° |
| 2026-05-07 08:27 | 26.26619 | 88.04911 | 38910 ft | 509 kts | 25° |
| 2026-05-07 08:28 | 26.32700 | 88.08874 | 38910 ft | 509 kts | 25° |
| 2026-05-07 08:28 | 26.38816 | 88.12881 | 38912 ft | 510 kts | 26° |
| 2026-05-07 08:29 | 26.44932 | 88.16900 | 38909 ft | 510 kts | 26° |
| 2026-05-07 08:29 | 26.51052 | 88.20922 | 38914 ft | 510 kts | 25° |
| 2026-05-07 08:30 | 26.57175 | 88.24938 | 38911 ft | 510 kts | 25° |
| 2026-05-07 08:30 | 26.62774 | 88.29852 | 38906 ft | 519 kts | 49° |
| 2026-05-07 08:31 | 26.64797 | 88.33194 | 38903 ft | 520 kts | 63° |
| 2026-05-07 08:31 | 26.66148 | 88.36923 | 38895 ft | 517 kts | 77° |
| 2026-05-07 08:31 | 26.66781 | 88.40852 | 38891 ft | 510 kts | 91° |
| 2026-05-07 08:31 | 26.66690 | 88.44784 | 38885 ft | 501 kts | 104° |
| 2026-05-07 08:32 | 26.65405 | 88.52403 | 38883 ft | 499 kts | 107° |
| 2026-05-07 08:32 | 26.64070 | 88.59971 | 38894 ft | 500 kts | 107° |
| 2026-05-07 08:33 | 26.62728 | 88.67614 | 38903 ft | 501 kts | 107° |
| 2026-05-07 08:33 | 26.61392 | 88.75266 | 38916 ft | 502 kts | 107° |
| 2026-05-07 08:34 | 26.60048 | 88.82920 | 38928 ft | 502 kts | 107° |
| 2026-05-07 08:34 | 26.58691 | 88.90566 | 38934 ft | 502 kts | 107° |
| 2026-05-07 08:35 | 26.57351 | 88.98238 | 38946 ft | 503 kts | 107° |
| 2026-05-07 08:35 | 26.56281 | 89.04618 | 38954 ft | 503 kts | 107° |
| 2026-05-07 08:36 | 26.54767 | 89.13591 | 38953 ft | 503 kts | 107° |
| 2026-05-07 08:36 | 26.53674 | 89.19974 | 38951 ft | 503 kts | 107° |
| 2026-05-07 08:37 | 26.52118 | 89.28884 | 38949 ft | 502 kts | 108° |
| 2026-05-07 08:37 | 26.50983 | 89.35294 | 38940 ft | 502 kts | 108° |
| 2026-05-07 08:38 | 26.49645 | 89.42901 | 38932 ft | 502 kts | 107° |
| 2026-05-07 08:38 | 26.48313 | 89.50550 | 38926 ft | 502 kts | 108° |
| 2026-05-07 08:39 | 26.46975 | 89.58197 | 38921 ft | 502 kts | 108° |
| 2026-05-07 08:39 | 26.45629 | 89.65839 | 38934 ft | 502 kts | 108° |
| 2026-05-07 08:40 | 26.44273 | 89.73497 | 38932 ft | 502 kts | 108° |
| 2026-05-07 08:40 | 26.42916 | 89.81150 | 38945 ft | 502 kts | 108° |
| 2026-05-07 08:41 | 26.41559 | 89.88790 | 38957 ft | 502 kts | 108° |
| 2026-05-07 08:41 | 26.40214 | 89.96380 | 38970 ft | 502 kts | 108° |
| 2026-05-07 08:42 | 26.38851 | 90.04010 | 38981 ft | 502 kts | 108° |
| 2026-05-07 08:42 | 26.37483 | 90.11639 | 38987 ft | 502 kts | 108° |
| 2026-05-07 08:43 | 26.36113 | 90.19278 | 38990 ft | 502 kts | 108° |
| 2026-05-07 08:43 | 26.34738 | 90.26916 | 38998 ft | 503 kts | 108° |
| 2026-05-07 08:44 | 26.33352 | 90.34558 | 39002 ft | 503 kts | 108° |
| 2026-05-07 08:44 | 26.31957 | 90.42192 | 38960 ft | 502 kts | 108° |
| 2026-05-07 08:45 | 26.30564 | 90.49803 | 38952 ft | 501 kts | 108° |
| 2026-05-07 08:45 | 26.29181 | 90.57415 | 38862 ft | 500 kts | 108° |
| 2026-05-07 08:46 | 26.27796 | 90.65009 | 38850 ft | 500 kts | 108° |
| 2026-05-07 08:46 | 26.26501 | 90.72639 | 38854 ft | 502 kts | 105° |
| 2026-05-07 08:47 | 26.25402 | 90.80343 | 38856 ft | 504 kts | 104° |
| 2026-05-07 08:47 | 26.24337 | 90.88019 | 38858 ft | 504 kts | 105° |
| 2026-05-07 08:48 | 26.23199 | 90.95724 | 38860 ft | 504 kts | 105° |
| 2026-05-07 08:48 | 26.22020 | 91.03421 | 38861 ft | 504 kts | 105° |
| 2026-05-07 08:49 | 26.20843 | 91.11123 | 38860 ft | 504 kts | 105° |
| 2026-05-07 08:49 | 26.19677 | 91.18831 | 38859 ft | 505 kts | 105° |
| 2026-05-07 08:50 | 26.18520 | 91.26533 | 38856 ft | 505 kts | 105° |
| 2026-05-07 08:50 | 26.17346 | 91.34254 | 38859 ft | 505 kts | 105° |
| 2026-05-07 08:51 | 26.16159 | 91.41955 | 38859 ft | 505 kts | 105° |
| 2026-05-07 08:51 | 26.14970 | 91.49652 | 38816 ft | 507 kts | 105° |
| 2026-05-07 08:52 | 26.14363 | 91.53565 | 38567 ft | 518 kts | 105° |
| 2026-05-07 08:52 | 26.13828 | 91.57500 | 38318 ft | 525 kts | 98° |
| 2026-05-07 08:52 | 26.13898 | 91.61575 | 38198 ft | 529 kts | 85° |
| 2026-05-07 08:52 | 26.14623 | 91.65609 | 38250 ft | 534 kts | 79° |
| 2026-05-07 08:53 | 26.16263 | 91.73684 | 38198 ft | 535 kts | 79° |
| 2026-05-07 08:53 | 26.17078 | 91.77748 | 37292 ft | 543 kts | 79° |
| 2026-05-07 08:53 | 26.17907 | 91.81843 | 36914 ft | 537 kts | 79° |
| 2026-05-07 08:54 | 26.18728 | 91.85865 | 36606 ft | 530 kts | 79° |
| 2026-05-07 08:54 | 26.19548 | 91.89876 | 35854 ft | 533 kts | 79° |
| 2026-05-07 08:54 | 26.20370 | 91.93915 | 35052 ft | 536 kts | 79° |
| 2026-05-07 08:54 | 26.21188 | 91.97949 | 34504 ft | 531 kts | 79° |
| 2026-05-07 08:55 | 26.21998 | 92.01948 | 33971 ft | 529 kts | 80° |
| 2026-05-07 08:55 | 26.22802 | 92.05941 | 33360 ft | 528 kts | 80° |
| 2026-05-07 08:55 | 26.23602 | 92.09927 | 32810 ft | 526 kts | 80° |
| 2026-05-07 08:55 | 26.24387 | 92.13837 | 32279 ft | 523 kts | 80° |
| 2026-05-07 08:56 | 26.25179 | 92.17779 | 31798 ft | 519 kts | 79° |
| 2026-05-07 08:56 | 26.25964 | 92.21679 | 31289 ft | 514 kts | 79° |
| 2026-05-07 08:56 | 26.26744 | 92.25556 | 30758 ft | 511 kts | 79° |
| 2026-05-07 08:56 | 26.27519 | 92.29413 | 30270 ft | 506 kts | 79° |
| 2026-05-07 08:57 | 26.28294 | 92.33223 | 29748 ft | 503 kts | 79° |
| 2026-05-07 08:57 | 26.29125 | 92.36982 | 29334 ft | 497 kts | 77° |
| 2026-05-07 08:57 | 26.30010 | 92.40699 | 28878 ft | 492 kts | 77° |
| 2026-05-07 08:57 | 26.30919 | 92.44355 | 28396 ft | 487 kts | 76° |
| 2026-05-07 08:58 | 26.31828 | 92.47966 | 27912 ft | 483 kts | 76° |
| 2026-05-07 08:58 | 26.32720 | 92.51544 | 27539 ft | 475 kts | 77° |
| 2026-05-07 08:58 | 26.33587 | 92.55072 | 27083 ft | 470 kts | 77° |
| 2026-05-07 08:58 | 26.34424 | 92.58542 | 26605 ft | 467 kts | 77° |
| 2026-05-07 08:59 | 26.35250 | 92.62025 | 26165 ft | 462 kts | 78° |
| 2026-05-07 08:59 | 26.36061 | 92.65480 | 25733 ft | 457 kts | 78° |
| 2026-05-07 08:59 | 26.36856 | 92.68885 | 25318 ft | 452 kts | 78° |
| 2026-05-07 08:59 | 26.37648 | 92.72257 | 24904 ft | 447 kts | 78° |
| 2026-05-07 09:00 | 26.38435 | 92.75587 | 24615 ft | 438 kts | 78° |
| 2026-05-07 09:00 | 26.39197 | 92.78792 | 24382 ft | 420 kts | 78° |
| 2026-05-07 09:00 | 26.39938 | 92.81913 | 24132 ft | 413 kts | 78° |
| 2026-05-07 09:00 | 26.40667 | 92.84993 | 23882 ft | 409 kts | 78° |
| 2026-05-07 09:01 | 26.41391 | 92.88050 | 23617 ft | 403 kts | 78° |
| 2026-05-07 09:01 | 26.42093 | 92.91018 | 23216 ft | 390 kts | 78° |
| 2026-05-07 09:01 | 26.42780 | 92.93936 | 22789 ft | 389 kts | 78° |
| 2026-05-07 09:01 | 26.43464 | 92.96857 | 22357 ft | 388 kts | 78° |
| 2026-05-07 09:02 | 26.44132 | 92.99725 | 21936 ft | 387 kts | 78° |
| 2026-05-07 09:02 | 26.44811 | 93.02628 | 21490 ft | 386 kts | 77° |
| 2026-05-07 09:02 | 26.45490 | 93.05524 | 21059 ft | 384 kts | 77° |
| 2026-05-07 09:02 | 26.46165 | 93.08408 | 20625 ft | 383 kts | 77° |
| 2026-05-07 09:03 | 26.46837 | 93.11278 | 20190 ft | 381 kts | 77° |
| 2026-05-07 09:03 | 26.47509 | 93.14137 | 19744 ft | 380 kts | 77° |
| 2026-05-07 09:03 | 26.48180 | 93.16986 | 19302 ft | 379 kts | 77° |
| 2026-05-07 09:03 | 26.48847 | 93.19836 | 18861 ft | 377 kts | 76° |
| 2026-05-07 09:04 | 26.49507 | 93.22662 | 18416 ft | 376 kts | 76° |
| 2026-05-07 09:04 | 26.50157 | 93.25441 | 17979 ft | 374 kts | 76° |
| 2026-05-07 09:04 | 26.50814 | 93.28250 | 17535 ft | 372 kts | 76° |
| 2026-05-07 09:04 | 26.51465 | 93.31044 | 17086 ft | 371 kts | 76° |
| 2026-05-07 09:05 | 26.52111 | 93.33829 | 16635 ft | 370 kts | 77° |
| 2026-05-07 09:05 | 26.52754 | 93.36608 | 16176 ft | 368 kts | 76° |
| 2026-05-07 09:05 | 26.53392 | 93.39365 | 15746 ft | 366 kts | 76° |
| 2026-05-07 09:05 | 26.54034 | 93.42113 | 15300 ft | 364 kts | 76° |
| 2026-05-07 09:06 | 26.54670 | 93.44844 | 14842 ft | 362 kts | 77° |
| 2026-05-07 09:06 | 26.55292 | 93.47559 | 14400 ft | 360 kts | 77° |
| 2026-05-07 09:06 | 26.55899 | 93.50231 | 14016 ft | 357 kts | 77° |
| 2026-05-07 09:06 | 26.56508 | 93.52914 | 13534 ft | 355 kts | 77° |
| 2026-05-07 09:07 | 26.57109 | 93.55565 | 13162 ft | 350 kts | 77° |
| 2026-05-07 09:07 | 26.57706 | 93.58208 | 12751 ft | 348 kts | 77° |
| 2026-05-07 09:07 | 26.58292 | 93.60795 | 12186 ft | 340 kts | 77° |
| 2026-05-07 09:07 | 26.58865 | 93.63317 | 11710 ft | 329 kts | 77° |
| 2026-05-07 09:08 | 26.59413 | 93.65724 | 11419 ft | 311 kts | 77° |
| 2026-05-07 09:08 | 26.60109 | 93.67958 | 11038 ft | 301 kts | 63° |
| 2026-05-07 09:08 | 26.61305 | 93.69827 | 10643 ft | 292 kts | 45° |
| 2026-05-07 09:08 | 26.62877 | 93.71198 | 10248 ft | 284 kts | 28° |
| 2026-05-07 09:09 | 26.64687 | 93.72039 | 9858 ft | 282 kts | 17° |
| 2026-05-07 09:09 | 26.66548 | 93.72725 | 9500 ft | 280 kts | 17° |
| 2026-05-07 09:09 | 26.68368 | 93.73402 | 9225 ft | 278 kts | 18° |
| 2026-05-07 09:09 | 26.70195 | 93.74086 | 8973 ft | 276 kts | 18° |
| 2026-05-07 09:10 | 26.72009 | 93.74765 | 8727 ft | 275 kts | 18° |
| 2026-05-07 09:10 | 26.73818 | 93.75440 | 8513 ft | 274 kts | 18° |
| 2026-05-07 09:10 | 26.75623 | 93.76114 | 8311 ft | 272 kts | 18° |
| 2026-05-07 09:10 | 26.77421 | 93.76787 | 8116 ft | 272 kts | 18° |
| 2026-05-07 09:11 | 26.79216 | 93.77461 | 7989 ft | 271 kts | 18° |
| 2026-05-07 09:11 | 26.81003 | 93.78132 | 7909 ft | 271 kts | 18° |
| 2026-05-07 09:11 | 26.82787 | 93.78798 | 7858 ft | 270 kts | 18° |
| 2026-05-07 09:11 | 26.84574 | 93.79464 | 7852 ft | 270 kts | 18° |
| 2026-05-07 09:12 | 26.86359 | 93.80132 | 7879 ft | 271 kts | 18° |
| 2026-05-07 09:12 | 26.88145 | 93.80801 | 7927 ft | 269 kts | 18° |
| 2026-05-07 09:12 | 26.89855 | 93.81443 | 7557 ft | 260 kts | 18° |
| 2026-05-07 09:12 | 26.91592 | 93.82096 | 6880 ft | 268 kts | 18° |
| 2026-05-07 09:13 | 26.93359 | 93.82758 | 6509 ft | 263 kts | 18° |
| 2026-05-07 09:13 | 26.95082 | 93.83404 | 5977 ft | 259 kts | 18° |
| 2026-05-07 09:13 | 26.96787 | 93.84044 | 5399 ft | 257 kts | 18° |
| 2026-05-07 09:13 | 26.98510 | 93.84516 | 4844 ft | 254 kts | 359° |
| 2026-05-07 09:14 | 27.00146 | 93.83931 | 4314 ft | 248 kts | 321° |
| 2026-05-07 09:14 | 27.01100 | 93.82380 | 3762 ft | 244 kts | 283° |
| 2026-05-07 09:14 | 27.00965 | 93.80548 | 3330 ft | 237 kts | 244° |
| 2026-05-07 09:14 | 27.00145 | 93.78951 | 2962 ft | 236 kts | 244° |
| 2026-05-07 09:15 | 26.99681 | 93.77189 | 2604 ft | 236 kts | 257° |
| 2026-05-07 09:15 | 26.99327 | 93.75391 | 2237 ft | 236 kts | 257° |
| 2026-05-07 09:15 | 26.98937 | 93.73610 | 1969 ft | 233 kts | 255° |
| 2026-05-07 09:15 | 26.98537 | 93.71857 | 1609 ft | 228 kts | 254° |
| 2026-05-07 09:16 | 26.98155 | 93.70180 | 1308 ft | 216 kts | 256° |
| 2026-05-07 09:16 | 26.97795 | 93.68600 | 1048 ft | 201 kts | 257° |
| 2026-05-07 09:16 | 26.97465 | 93.67153 | 794 ft | 181 kts | 257° |
| 2026-05-07 09:16 | 26.97175 | 93.65886 | 559 ft | 156 kts | 257° |
| 2026-05-07 09:17 | 26.96917 | 93.64752 | 366 ft | 146 kts | 257° |
| 2026-05-07 09:17 | 26.96705 | 93.63818 | 359 ft | 85 kts | 255° |
| 2026-05-07 09:17 | 26.96619 | 93.63449 | 359 ft | 34 kts | 255° |
| 2026-05-07 09:17 | 26.96566 | 93.63224 | 360 ft | 31 kts | 255° |
| 2026-05-07 09:18 | 26.96519 | 93.63003 | 360 ft | 23 kts | 256° |
| 2026-05-07 09:18 | 26.96468 | 93.62878 | 360 ft | 10 kts | 262° |
| 2026-05-07 09:18 | 26.96504 | 93.62907 | 360 ft | 12 kts | 83° |
| 2026-05-07 09:18 | 26.96522 | 93.63008 | 360 ft | 15 kts | 75° |
| 2026-05-07 09:19 | 26.96552 | 93.63135 | 360 ft | 19 kts | 75° |
| 2026-05-07 09:19 | 26.96588 | 93.63288 | 360 ft | 22 kts | 75° |
| 2026-05-07 09:19 | 26.96631 | 93.63464 | 359 ft | 25 kts | 74° |
| 2026-05-07 09:19 | 26.96673 | 93.63664 | 362 ft | 28 kts | 77° |
| 2026-05-07 09:20 | 26.96723 | 93.63883 | 359 ft | 30 kts | 75° |
| 2026-05-07 09:20 | 26.96779 | 93.64120 | 359 ft | 32 kts | 76° |
| 2026-05-07 09:20 | 26.96810 | 93.64273 | 358 ft | 9 kts | 77° |
| 2026-05-07 09:20 | 26.96858 | 93.64315 | 358 ft | 11 kts | 354° |
| 2026-05-07 09:21 | 26.96922 | 93.64297 | 358 ft | 0 kts | 346° |
| 2026-05-07 09:21 | 26.97083 | 93.64294 | 358 ft | 2 kts | 346° |
| 2026-05-07 09:21 | 26.97089 | 93.64292 | 363 ft | 0 kts | 346° |